Time;durP1;ratioP1;P1;durP2;ratioP2;P2;SDS_P1;SDS_P2;PMS_P1;PMS_P2;Temp;Humidity;BMP_temperature;BMP_pressure;BME280_temperature;BME280_humidity;BME280_pressure;Samples;Min_cycle;Max_cycle;Signal;HPM_P1;HPM_P2
2022/05/06 00:01:50;;;;;;;8.20;5.45;;;;;;;17.10;47.55;101753.31;5064558;28;20412;-57
2022/05/06 00:04:17;;;;;;;8.40;5.70;;;;;;;16.77;48.22;101759.03;5066000;28;20954;-57
2022/05/06 00:06:44;;;;;;;6.13;5.50;;;;;;;17.02;47.77;101756.09;5066681;28;20442;-57
2022/05/06 00:09:11;;;;;;;6.90;5.35;;;;;;;16.81;48.30;101762.19;5065015;28;20942;-57
2022/05/06 00:13:55;;;;;;;7.63;5.57;;;;;;;16.81;48.51;101756.81;5071377;28;20477;-57
2022/05/06 00:16:23;;;;;;;6.78;5.63;;;;;;;16.46;49.44;101761.91;5066334;28;20451;-57
2022/05/06 00:18:50;;;;;;;6.22;5.57;;;;;;;16.38;49.92;101761.97;5063901;28;20430;-56
2022/05/06 00:21:18;;;;;;;7.30;5.47;;;;;;;16.20;50.50;101763.13;5065958;28;20422;-58
2022/05/06 00:23:46;;;;;;;6.78;5.53;;;;;;;16.57;49.74;101765.97;5063362;28;20867;-57
2022/05/06 00:26:13;;;;;;;7.45;5.53;;;;;;;16.65;49.43;101771.22;5064852;28;20424;-59
2022/05/06 00:29:25;;;;;;;6.97;5.60;;;;;;;16.70;49.11;101776.88;5106297;27;20462;-56
2022/05/06 00:31:52;;;;;;;7.07;5.40;;;;;;;17.07;48.21;101776.97;5103667;28;20424;-56
2022/05/06 00:34:19;;;;;;;7.03;5.32;;;;;;;17.11;47.89;101776.41;5105945;28;20462;-58
2022/05/06 00:36:46;;;;;;;9.63;5.57;;;;;;;17.23;47.60;101775.91;5105085;28;20424;-58
2022/05/06 00:39:13;;;;;;;7.50;5.65;;;;;;;17.26;47.43;101789.78;5106644;28;20413;-57
2022/05/06 00:41:40;;;;;;;9.65;5.70;;;;;;;17.28;47.39;101792.28;5106106;28;20416;-56
2022/05/06 00:44:08;;;;;;;7.60;5.53;;;;;;;17.33;47.21;101782.63;5104901;28;20421;-56
2022/05/06 00:46:38;;;;;;;6.40;5.30;;;;;;;17.42;47.07;101779.84;5104794;28;20419;-57
2022/05/06 00:49:08;;;;;;;8.35;5.65;;;;;;;17.45;47.02;101788.34;5105498;28;20424;-58
2022/05/06 00:51:36;;;;;;;6.30;5.30;;;;;;;17.50;46.94;101785.94;5103833;28;20420;-56
2022/05/06 00:54:03;;;;;;;6.22;5.50;;;;;;;17.48;46.74;101787.13;5105472;28;20420;-55
2022/05/06 00:56:30;;;;;;;7.75;5.78;;;;;;;17.50;46.89;101785.94;5105698;28;20419;-57
2022/05/06 00:58:57;;;;;;;6.75;5.32;;;;;;;17.48;47.03;101784.44;5105455;28;20452;-57
2022/05/06 01:01:24;;;;;;;7.20;5.50;;;;;;;17.41;47.30;101784.38;5105503;28;20480;-56
2022/05/06 01:03:53;;;;;;;6.53;5.47;;;;;;;17.41;47.03;101787.06;5104535;28;20422;-56
2022/05/06 01:06:21;;;;;;;6.97;5.70;;;;;;;17.42;46.62;101787.91;5105643;28;20470;-56
2022/05/06 01:08:47;;;;;;;7.15;6.15;;;;;;;17.41;45.88;101788.91;5102676;28;20420;-58
2022/05/06 01:11:15;;;;;;;7.30;5.57;;;;;;;17.36;45.20;101789.50;5105725;28;20452;-58
2022/05/06 01:13:43;;;;;;;8.07;5.70;;;;;;;17.30;45.15;101785.69;5102324;28;20420;-56
2022/05/06 01:18:13;;;;;;;6.63;5.72;;;;;;;17.27;45.19;101793.28;5099648;27;20926;-57
2022/05/06 01:23:43;;;;;;;7.80;5.80;;;;;;;17.20;45.47;101786.00;5098541;27;20458;-56
2022/05/06 01:26:10;;;;;;;6.60;5.80;;;;;;;17.15;45.69;101787.59;5105175;28;20994;-55
2022/05/06 01:30:38;;;;;;;7.30;5.55;;;;;;;17.13;45.77;101795.81;5081091;28;20416;-55
2022/05/06 01:33:34;;;;;;;8.93;5.68;;;;;;;17.08;45.93;101795.53;5109235;27;20669;-55
2022/05/06 01:36:04;;;;;;;8.73;5.47;;;;;;;17.03;45.92;101787.22;5100240;28;20452;-55
2022/05/06 01:38:43;;;;;;;9.75;5.60;;;;;;;17.04;45.95;101788.06;5105591;28;20447;-53
2022/05/06 01:41:16;;;;;;;7.07;5.60;;;;;;;16.96;46.05;101792.50;5107313;28;20487;-56
2022/05/06 01:43:47;;;;;;;10.95;5.93;;;;;;;16.93;45.79;101795.53;5106580;28;20408;-57
2022/05/06 01:46:16;;;;;;;8.32;5.65;;;;;;;16.92;45.84;101795.72;5107350;28;20416;-57
2022/05/06 01:48:47;;;;;;;9.15;5.82;;;;;;;16.87;45.82;101792.78;5107302;28;20850;-55
2022/05/06 01:51:16;;;;;;;8.07;5.70;;;;;;;16.81;45.88;101792.47;5106927;28;20404;-54
2022/05/06 01:53:44;;;;;;;7.65;5.50;;;;;;;16.80;45.93;101793.50;5106621;28;20448;-55
2022/05/06 01:56:11;;;;;;;8.73;5.88;;;;;;;16.77;45.87;101788.50;5106815;28;20416;-56
2022/05/06 01:58:39;;;;;;;11.18;5.45;;;;;;;16.75;45.89;101781.69;5106680;28;20419;-57
2022/05/06 02:01:06;;;;;;;6.43;5.15;;;;;;;16.70;45.83;101784.06;5106577;28;20408;-59
2022/05/06 02:06:19;;;;;;;5.95;5.25;;;;;;;16.56;46.04;101791.06;5106822;28;20400;-54
2022/05/06 02:08:46;;;;;;;6.78;5.47;;;;;;;16.52;46.22;101792.47;5106319;28;20405;-58
2022/05/06 02:11:14;;;;;;;8.35;5.45;;;;;;;16.49;46.31;101788.28;5105798;28;20414;-58
2022/05/06 02:13:41;;;;;;;6.65;5.57;;;;;;;16.49;46.17;101782.94;5105984;28;20419;-60
2022/05/06 02:16:09;;;;;;;7.82;5.55;;;;;;;16.48;46.18;101783.13;5105568;28;20470;-56
2022/05/06 02:18:36;;;;;;;7.70;5.45;;;;;;;16.46;46.38;101793.16;5106611;28;20474;-57
2022/05/06 02:21:03;;;;;;;10.00;5.45;;;;;;;16.45;46.52;101803.06;5106331;28;20415;-57
2022/05/06 02:23:31;;;;;;;8.10;5.07;;;;;;;16.42;46.50;101795.38;5106443;28;20495;-57
2022/05/06 02:27:25;;;;;;;6.88;5.55;;;;;;;16.36;46.50;101777.38;5107489;27;20802;-56
2022/05/06 02:35:21;;;;;;;8.80;6.85;;;;;;;16.34;46.06;101779.41;5085809;28;20539;-56
2022/05/06 02:37:48;;;;;;;10.88;8.63;;;;;;;16.33;46.19;101783.09;5086313;28;20410;-56
2022/05/06 02:40:16;;;;;;;11.13;8.38;;;;;;;16.16;46.28;101790.44;5086066;28;20452;-54
2022/05/06 02:42:44;;;;;;;14.27;8.52;;;;;;;15.99;46.75;101787.91;5084370;28;20442;-56
2022/05/06 02:45:11;;;;;;;9.75;7.30;;;;;;;16.05;46.50;101783.69;5090925;28;20413;-56
2022/05/06 02:47:39;;;;;;;9.48;6.90;;;;;;;16.19;46.19;101776.72;5084521;28;20426;-62
2022/05/06 02:50:07;;;;;;;9.43;6.55;;;;;;;16.15;46.32;101786.94;5085978;28;20446;-56
2022/05/06 02:52:34;;;;;;;9.48;6.50;;;;;;;16.19;46.30;101787.44;5084777;28;20912;-56
2022/05/06 02:55:01;;;;;;;7.07;6.07;;;;;;;16.24;46.18;101790.34;5085876;28;20457;-57
2022/05/06 02:57:28;;;;;;;7.57;5.50;;;;;;;16.21;46.02;101788.88;5083017;28;20974;-56
2022/05/06 02:59:57;;;;;;;8.32;5.50;;;;;;;16.23;45.87;101796.75;5084913;28;20495;-57
2022/05/06 03:02:24;;;;;;;8.27;5.60;;;;;;;16.17;46.08;101798.31;5086849;28;20912;-56
2022/05/06 03:04:51;;;;;;;8.75;5.72;;;;;;;16.23;45.73;101797.56;5074680;28;20452;-55
2022/05/06 03:07:18;;;;;;;6.90;5.63;;;;;;;16.27;45.79;101807.91;5078236;28;20461;-55
2022/05/06 03:09:45;;;;;;;9.30;5.50;;;;;;;16.24;45.82;101811.75;5085351;28;20424;-59
2022/05/06 03:12:12;;;;;;;8.13;5.35;;;;;;;16.22;45.47;101820.00;5084039;28;20572;-56
2022/05/06 03:14:39;;;;;;;7.68;5.47;;;;;;;16.10;45.80;101816.09;5101418;28;20423;-56
2022/05/06 03:17:07;;;;;;;6.47;5.20;;;;;;;16.08;45.75;101817.25;5093132;28;20601;-56
2022/05/06 03:19:34;;;;;;;6.47;5.22;;;;;;;15.86;46.40;101822.44;5085280;28;20454;-56
2022/05/06 03:22:03;;;;;;;5.97;5.20;;;;;;;15.82;46.36;101816.59;5083850;28;20430;-57
2022/05/06 03:24:30;;;;;;;8.73;5.00;;;;;;;16.03;46.06;101818.63;5084171;28;20890;-56
2022/05/06 03:26:57;;;;;;;9.50;5.50;;;;;;;16.21;45.50;101825.53;5086916;28;20482;-54
2022/05/06 03:29:24;;;;;;;10.32;5.20;;;;;;;16.24;45.78;101826.00;5088060;28;20450;-56
2022/05/06 03:31:53;;;;;;;9.38;5.22;;;;;;;16.26;45.76;101839.19;5083338;28;20838;-56
2022/05/06 03:34:21;;;;;;;10.57;6.18;;;;;;;16.26;45.83;101839.19;5102698;28;20510;-58
2022/05/06 03:36:48;;;;;;;8.98;5.97;;;;;;;16.28;45.75;101839.00;5102977;28;20440;-56
2022/05/06 03:39:15;;;;;;;8.75;6.20;;;;;;;16.24;45.87;101850.06;5092102;28;21711;-57
2022/05/06 03:41:42;;;;;;;14.25;6.13;;;;;;;16.20;46.21;101845.25;5089907;28;20453;-57
2022/05/06 03:44:09;;;;;;;13.13;5.90;;;;;;;16.18;46.29;101844.59;5088177;28;20412;-56
2022/05/06 03:46:36;;;;;;;8.00;5.30;;;;;;;16.10;46.31;101841.97;5081134;28;20457;-56
2022/05/06 03:49:04;;;;;;;6.05;5.15;;;;;;;16.01;46.79;101854.59;5071593;28;20423;-56
2022/05/06 03:51:31;;;;;;;7.55;5.45;;;;;;;15.98;46.69;101865.66;5070630;28;20423;-56
2022/05/06 03:53:59;;;;;;;7.75;5.70;;;;;;;15.96;46.84;101863.16;5068481;28;20418;-56
2022/05/06 03:56:27;;;;;;;8.80;6.38;;;;;;;16.02;46.90;101862.41;5069715;28;20492;-56
2022/05/06 03:58:55;;;;;;;8.80;6.40;;;;;;;15.95;47.16;101857.97;5070422;28;20422;-58
2022/05/06 04:01:22;;;;;;;9.80;6.38;;;;;;;15.95;47.33;101866.81;5064343;28;21052;-55
2022/05/06 04:03:49;;;;;;;8.35;5.97;;;;;;;15.91;47.38;101870.03;5069555;28;20422;-57
2022/05/06 04:06:16;;;;;;;8.88;7.75;;;;;;;15.79;47.86;101878.47;5061426;28;20454;-56
2022/05/06 04:08:44;;;;;;;7.95;6.20;;;;;;;15.90;47.86;101873.72;5070105;28;20410;-56
2022/05/06 04:11:12;;;;;;;8.68;6.60;;;;;;;15.91;47.86;101878.88;5073884;28;20500;-56
2022/05/06 04:13:40;;;;;;;9.68;6.65;;;;;;;15.79;47.95;101875.78;5075125;28;20491;-56
2022/05/06 04:16:07;;;;;;;10.52;6.20;;;;;;;15.74;47.69;101883.50;5070311;28;20462;-56
2022/05/06 04:18:34;;;;;;;8.75;5.93;;;;;;;15.57;47.61;101888.06;5071246;28;20423;-56
2022/05/06 04:23:47;;;;;;;10.18;6.15;;;;;;;15.61;47.88;101886.72;5084555;28;20411;-56
2022/05/06 04:26:14;;;;;;;9.85;5.88;;;;;;;15.76;47.58;101891.34;5072173;28;20474;-57
2022/05/06 04:28:43;;;;;;;9.57;5.80;;;;;;;15.73;47.18;101897.00;5068847;28;20423;-56
2022/05/06 04:31:11;;;;;;;9.10;5.72;;;;;;;15.94;46.64;101902.59;5080246;28;20420;-55
2022/05/06 04:33:39;;;;;;;9.10;6.20;;;;;;;16.05;46.71;101907.53;5075617;28;20450;-56
2022/05/06 04:36:06;;;;;;;9.83;5.70;;;;;;;15.94;46.92;101904.47;5074754;28;20416;-56
2022/05/06 04:38:33;;;;;;;8.20;5.57;;;;;;;16.08;46.34;101909.06;5070836;28;20446;-57
2022/05/06 04:41:02;;;;;;;6.18;5.22;;;;;;;16.10;46.31;101915.06;5076555;28;20507;-56
2022/05/06 04:43:30;;;;;;;8.40;5.60;;;;;;;16.20;46.34;101915.63;5076682;28;20838;-56
2022/05/06 04:45:58;;;;;;;8.85;5.97;;;;;;;16.21;46.36;101916.47;5073551;28;20828;-56
2022/05/06 04:48:26;;;;;;;8.73;6.10;;;;;;;16.26;46.44;101919.47;5084567;28;20426;-56
2022/05/06 04:50:53;;;;;;;8.67;5.60;;;;;;;16.36;45.96;101920.03;5075061;28;20429;-56
2022/05/06 04:53:20;;;;;;;6.30;5.60;;;;;;;16.10;46.38;101925.75;5065248;28;20450;-56
2022/05/06 04:55:50;;;;;;;12.10;5.30;;;;;;;16.32;46.11;101931.28;5058388;28;20455;-56
2022/05/06 04:58:19;;;;;;;10.75;5.57;;;;;;;16.44;45.68;101925.34;5055176;28;20958;-56
2022/05/06 05:00:47;;;;;;;6.90;4.70;;;;;;;16.25;45.85;101926.63;5067328;28;20946;-56
2022/05/06 05:03:14;;;;;;;8.32;5.10;;;;;;;16.05;46.20;101928.94;5069986;28;20852;-56
2022/05/06 05:05:41;;;;;;;5.80;4.70;;;;;;;15.54;47.17;101927.66;5076966;28;20457;-55
2022/05/06 05:08:09;;;;;;;9.35;5.30;;;;;;;15.54;47.61;101931.19;5069805;28;20422;-56
2022/05/06 05:10:36;;;;;;;6.53;4.80;;;;;;;15.88;46.55;101919.34;5082169;28;20561;-56
2022/05/06 05:13:03;;;;;;;8.43;5.18;;;;;;;16.17;46.37;101923.19;5070136;28;20498;-54
2022/05/06 05:15:32;;;;;;;8.13;5.03;;;;;;;16.27;46.15;101922.97;5071347;28;20426;-55
2022/05/06 05:17:59;;;;;;;9.75;4.90;;;;;;;16.16;46.05;101935.72;5069694;28;20906;-57
2022/05/06 05:20:26;;;;;;;9.23;4.63;;;;;;;16.35;45.54;101931.78;5069502;28;20442;-55
2022/05/06 05:22:53;;;;;;;10.25;4.72;;;;;;;16.63;45.15;101931.22;5068653;28;20939;-55
2022/05/06 05:25:20;;;;;;;10.77;4.63;;;;;;;16.74;44.95;101930.78;5068540;28;20919;-56
2022/05/06 05:27:47;;;;;;;7.43;5.03;;;;;;;16.94;44.64;101931.16;5069338;28;20858;-56
2022/05/06 05:30:14;;;;;;;7.30;4.68;;;;;;;16.90;44.60;101924.47;5068645;28;20415;-58
2022/05/06 05:32:43;;;;;;;11.48;4.90;;;;;;;16.83;44.83;101931.56;5078165;28;20415;-56
2022/05/06 05:35:10;;;;;;;7.32;4.53;;;;;;;16.84;44.89;101930.56;5069655;28;20923;-57
2022/05/06 05:37:37;;;;;;;11.10;5.07;;;;;;;16.97;44.86;101943.31;5070004;28;20918;-56
2022/05/06 05:40:06;;;;;;;6.30;4.70;;;;;;;16.95;44.54;101940.81;5071329;28;20425;-56
2022/05/06 05:42:33;;;;;;;5.88;4.47;;;;;;;17.00;44.49;101943.78;5069036;28;20427;-56
2022/05/06 05:50:30;;;;;;;10.23;4.93;;;;;;;17.37;44.35;101939.38;5070768;28;20756;-54
2022/05/06 05:52:58;;;;;;;6.50;4.65;;;;;;;17.48;43.62;101942.63;5068067;28;20468;-55
2022/05/06 05:55:25;;;;;;;6.97;4.80;;;;;;;17.52;43.78;101944.75;5066310;28;20426;-55
2022/05/06 05:57:52;;;;;;;5.40;4.50;;;;;;;17.94;43.11;101945.09;5067908;28;20455;-56
2022/05/06 06:00:19;;;;;;;8.73;4.80;;;;;;;17.91;43.00;101946.28;5068277;28;20504;-55
2022/05/06 06:02:48;;;;;;;9.60;5.30;;;;;;;17.90;42.80;101944.63;5069409;28;20450;-57
2022/05/06 06:05:15;;;;;;;6.70;4.97;;;;;;;17.66;42.92;101940.38;5069593;28;20448;-56
2022/05/06 06:07:42;;;;;;;8.63;5.10;;;;;;;17.48;43.36;101934.56;5068295;28;20430;-58
2022/05/06 06:10:10;;;;;;;7.23;5.10;;;;;;;17.42;43.39;101928.09;5070722;28;20454;-56
2022/05/06 06:12:39;;;;;;;6.60;4.75;;;;;;;17.11;44.13;101933.66;5068893;28;20419;-55
2022/05/06 06:15:07;;;;;;;7.70;4.82;;;;;;;17.40;43.45;101932.81;5067835;28;20425;-55
2022/05/06 06:17:34;;;;;;;11.75;5.07;;;;;;;17.63;43.27;101937.22;5068788;28;20458;-56
2022/05/06 06:20:05;;;;;;;6.57;4.70;;;;;;;17.83;43.03;101935.66;5068306;28;20419;-54
2022/05/06 06:22:32;;;;;;;7.57;4.82;;;;;;;17.62;43.33;101933.72;5068399;28;20411;-56
2022/05/06 06:24:59;;;;;;;9.77;4.78;;;;;;;17.65;43.58;101936.03;5079737;28;20426;-57
2022/05/06 06:27:28;;;;;;;7.38;4.78;;;;;;;17.71;43.50;101935.28;5068648;28;20433;-56
2022/05/06 06:29:55;;;;;;;7.30;5.00;;;;;;;17.63;43.52;101937.22;5068017;28;20469;-55
2022/05/06 06:32:22;;;;;;;7.32;4.57;;;;;;;17.78;43.07;101932.69;5081793;28;20938;-56
2022/05/06 06:34:51;;;;;;;7.60;4.80;;;;;;;18.12;42.15;101937.44;5069182;28;20415;-56
2022/05/06 06:37:21;;;;;;;7.83;4.70;;;;;;;18.33;41.90;101936.63;5068642;28;20495;-57
2022/05/06 06:39:48;;;;;;;7.70;4.60;;;;;;;18.23;42.07;101928.06;5067287;28;20445;-57
2022/05/06 06:42:15;;;;;;;10.38;4.70;;;;;;;18.34;41.75;101946.34;5068587;28;20413;-56
2022/05/06 06:44:42;;;;;;;10.57;4.50;;;;;;;18.16;42.01;101945.94;5069139;28;20475;-56
2022/05/06 06:47:09;;;;;;;7.97;4.60;;;;;;;18.22;41.58;101942.53;5068310;28;20445;-56
2022/05/06 06:49:37;;;;;;;6.05;4.57;;;;;;;18.07;41.87;101950.59;5076353;28;20508;-57
2022/05/06 06:52:04;;;;;;;5.28;4.43;;;;;;;17.90;41.63;101941.94;5081671;28;20825;-56
2022/05/06 06:54:33;;;;;;;8.57;4.30;;;;;;;18.06;41.90;101945.41;5067586;28;20415;-56
2022/05/06 06:57:00;;;;;;;6.18;4.43;;;;;;;18.15;41.16;101944.31;5067558;28;20496;-57
2022/05/06 06:59:27;;;;;;;8.43;4.60;;;;;;;18.29;41.09;101954.16;5074975;28;20456;-56
2022/05/06 07:01:54;;;;;;;5.75;4.47;;;;;;;18.03;41.55;101953.84;5070467;28;20423;-57
2022/05/06 07:04:21;;;;;;;6.65;4.63;;;;;;;17.82;41.63;101955.44;5068415;28;20517;-54
2022/05/06 07:12:21;;;;;;;8.90;5.25;;;;;;;17.73;42.53;101954.69;5069398;28;20418;-57
2022/05/06 07:14:48;;;;;;;7.25;4.63;;;;;;;17.87;42.20;101961.09;5073339;28;20803;-55
2022/05/06 07:17:15;;;;;;;6.30;4.90;;;;;;;18.06;42.31;101942.72;5071384;28;20997;-56
2022/05/06 07:19:42;;;;;;;10.25;5.35;;;;;;;18.11;42.29;101948.38;5071532;28;20447;-59
2022/05/06 07:22:09;;;;;;;7.68;4.88;;;;;;;18.01;41.94;101953.22;5070614;28;20426;-55
2022/05/06 07:24:37;;;;;;;7.68;4.90;;;;;;;18.00;41.88;101949.69;5072255;28;20415;-55
2022/05/06 07:27:05;;;;;;;8.27;4.95;;;;;;;18.30;42.29;101949.59;5072335;28;20462;-59
2022/05/06 07:29:32;;;;;;;6.95;4.93;;;;;;;18.56;41.17;101945.50;5071645;28;21007;-57
2022/05/06 07:31:59;;;;;;;10.25;5.22;;;;;;;18.50;41.17;101949.78;5072026;28;20916;-55
2022/05/06 07:34:26;;;;;;;9.95;5.10;;;;;;;18.85;40.95;101942.69;5071734;28;20508;-57
2022/05/06 07:36:53;;;;;;;9.90;5.20;;;;;;;18.81;41.26;101951.31;5071941;28;20433;-56
2022/05/06 07:39:20;;;;;;;7.97;5.25;;;;;;;19.24;40.28;101946.66;5070584;28;20454;-58
2022/05/06 07:41:48;;;;;;;6.55;5.03;;;;;;;18.98;40.62;101944.66;5071362;28;20942;-57
2022/05/06 07:44:15;;;;;;;9.87;5.70;;;;;;;18.75;41.09;101933.28;5070882;28;20807;-57
2022/05/06 07:46:42;;;;;;;8.17;5.47;;;;;;;19.08;40.92;101939.75;5071526;28;20425;-59
2022/05/06 07:49:10;;;;;;;11.18;6.10;;;;;;;19.07;40.67;101932.72;5069192;28;20540;-56
2022/05/06 07:51:38;;;;;;;7.03;5.38;;;;;;;18.96;41.14;101929.72;5071598;28;20500;-56
2022/05/06 07:54:05;;;;;;;7.38;5.43;;;;;;;18.79;41.27;101942.59;5069978;28;20415;-57
2022/05/06 07:56:32;;;;;;;8.33;5.30;;;;;;;18.92;41.20;101942.72;5070406;28;20425;-56
2022/05/06 07:59:01;;;;;;;6.22;5.25;;;;;;;19.09;40.95;101941.41;5074322;28;20501;-54
2022/05/06 08:06:57;;;;;;;9.15;5.57;;;;;;;19.36;41.14;101941.59;5068792;28;20438;-56
2022/05/06 08:09:24;;;;;;;8.70;5.38;;;;;;;19.20;41.65;101940.03;5068019;28;20426;-57
2022/05/06 08:11:52;;;;;;;8.60;5.25;;;;;;;18.94;41.60;101953.28;5082093;28;20421;-58
2022/05/06 08:14:21;;;;;;;8.57;5.03;;;;;;;19.21;41.41;101946.25;5073245;28;20880;-57
2022/05/06 08:16:49;;;;;;;6.63;5.03;;;;;;;19.17;41.15;101950.34;5074279;28;20448;-58
2022/05/06 08:19:16;;;;;;;9.13;5.53;;;;;;;19.18;41.16;101954.72;5068378;28;20463;-55
2022/05/06 08:21:44;;;;;;;8.00;5.00;;;;;;;19.31;41.07;101957.47;5062524;28;21000;-55
2022/05/06 08:24:11;;;;;;;8.60;5.20;;;;;;;19.38;41.19;101949.47;5065753;28;20425;-56
2022/05/06 08:26:39;;;;;;;9.23;5.85;;;;;;;19.51;41.06;101946.81;5055953;28;20428;-57
2022/05/06 08:29:06;;;;;;;9.57;5.68;;;;;;;19.86;40.44;101942.25;5062791;28;20420;-55
2022/05/06 08:31:37;;;;;;;7.05;5.20;;;;;;;19.89;40.46;101948.25;5057985;28;20408;-56
2022/05/06 08:34:07;;;;;;;9.80;5.45;;;;;;;19.90;40.58;101940.00;5052974;28;20470;-55
2022/05/06 08:36:35;;;;;;;7.97;5.00;;;;;;;19.79;40.99;101944.09;5058448;28;20824;-57
2022/05/06 08:39:02;;;;;;;9.27;5.35;;;;;;;19.73;41.15;101938.66;5064304;28;20410;-54
2022/05/06 08:41:30;;;;;;;10.25;5.43;;;;;;;19.81;41.13;101949.28;5070103;28;20411;-56
2022/05/06 08:43:58;;;;;;;8.95;5.40;;;;;;;19.97;40.50;101946.22;5069629;28;20429;-56
2022/05/06 08:52:11;;;;;;;6.68;5.00;;;;;;;20.14;40.35;101948.53;5065393;28;20958;-55
2022/05/06 08:54:39;;;;;;;6.55;5.40;;;;;;;19.98;40.67;101945.19;5071495;28;20946;-56
2022/05/06 08:57:06;;;;;;;8.93;5.50;;;;;;;20.15;40.80;101947.50;5069556;28;20426;-57
2022/05/06 08:59:33;;;;;;;8.73;5.20;;;;;;;20.09;41.07;101951.00;5068168;28;20924;-56
2022/05/06 09:02:00;;;;;;;8.13;5.00;;;;;;;20.15;41.35;101944.81;5077196;28;20421;-56
2022/05/06 09:04:29;;;;;;;8.38;5.03;;;;;;;20.41;40.79;101944.03;5073463;28;20560;-54
2022/05/06 09:07:14;;;;;;;6.10;5.10;;;;;;;20.33;40.67;101944.22;5062871;28;20445;-57
2022/05/06 09:09:41;;;;;;;5.93;4.70;;;;;;;19.96;41.02;101941.88;5065779;28;20446;-56
2022/05/06 09:17:46;;;;;;;5.82;4.78;;;;;;;20.08;41.46;101927.81;5052629;28;20420;-57
2022/05/06 09:20:21;;;;;;;7.82;4.60;;;;;;;20.58;40.95;101923.75;5057168;28;20428;-55
2022/05/06 09:22:50;;;;;;;8.07;4.78;;;;;;;20.55;40.31;101921.47;5056878;28;20470;-56
2022/05/06 09:25:36;;;;;;;8.38;5.00;;;;;;;20.34;40.21;101930.56;5067869;28;20430;-56
2022/05/06 09:28:03;;;;;;;6.55;4.63;;;;;;;20.44;40.57;101925.59;5067625;28;20923;-56
2022/05/06 09:30:30;;;;;;;5.90;4.40;;;;;;;20.47;40.30;101924.34;5065538;28;20955;-57
2022/05/06 09:32:58;;;;;;;5.93;4.50;;;;;;;20.70;40.23;101923.16;5061002;28;20478;-57
2022/05/06 09:35:30;;;;;;;6.40;4.63;;;;;;;20.51;40.24;101920.22;5069944;28;20423;-56
2022/05/06 09:38:00;;;;;;;5.67;4.20;;;;;;;20.53;40.12;101925.41;5068883;28;20415;-55
2022/05/06 09:40:29;;;;;;;6.28;4.63;;;;;;;20.56;39.88;101928.53;5068581;28;20504;-54
2022/05/06 09:43:01;;;;;;;8.50;4.47;;;;;;;20.69;40.30;101922.34;5068094;28;20419;-57
2022/05/06 09:45:33;;;;;;;6.30;4.30;;;;;;;20.80;40.21;101920.88;5067434;28;20472;-53
2022/05/06 09:48:02;;;;;;;6.60;4.35;;;;;;;20.90;39.78;101915.88;5068686;28;20950;-56
2022/05/06 09:50:35;;;;;;;5.40;4.20;;;;;;;20.95;39.90;101923.34;5068949;28;20508;-55
2022/05/06 09:53:02;;;;;;;7.63;4.20;;;;;;;20.84;40.00;101921.28;5066416;28;20441;-55
2022/05/06 09:55:30;;;;;;;6.93;4.15;;;;;;;20.89;39.70;101916.09;5068214;28;20476;-65
2022/05/06 09:57:59;;;;;;;7.28;3.90;;;;;;;20.85;39.97;101910.31;5082203;28;20421;-58
2022/05/06 10:00:26;;;;;;;6.32;3.88;;;;;;;20.92;40.10;101911.13;5085465;28;20424;-57
2022/05/06 10:02:54;;;;;;;5.00;3.87;;;;;;;20.98;40.26;101899.47;5067953;28;20665;-56
2022/05/06 10:05:21;;;;;;;5.35;3.85;;;;;;;21.20;38.90;101901.91;5067784;28;20423;-58
2022/05/06 10:07:52;;;;;;;6.13;4.05;;;;;;;21.37;39.07;101895.03;5068666;28;20430;-56
2022/05/06 10:10:25;;;;;;;9.68;4.07;;;;;;;21.37;39.50;101895.03;5064610;28;20769;-57
2022/05/06 10:12:57;;;;;;;5.15;3.65;;;;;;;21.34;39.21;101884.66;5069396;28;20410;-58
2022/05/06 10:15:27;;;;;;;5.60;4.13;;;;;;;21.54;38.92;101886.47;5088448;28;20903;-56
2022/05/06 10:17:56;;;;;;;8.00;3.72;;;;;;;21.68;39.09;101876.44;5073966;28;20507;-57
2022/05/06 10:20:48;;;;;;;4.55;3.80;;;;;;;21.78;38.44;101876.81;5079882;28;20452;-54
2022/05/06 10:23:18;;;;;;;5.95;3.90;;;;;;;21.69;38.61;101876.22;5065909;28;21007;-57
2022/05/06 10:25:55;;;;;;;6.97;3.60;;;;;;;21.69;38.42;101872.72;5068123;28;21043;-54
2022/05/06 10:34:29;;;;;;;7.50;3.60;;;;;;;21.85;38.31;101874.06;5066786;28;20413;-56
2022/05/06 10:36:58;;;;;;;7.88;3.58;;;;;;;21.88;38.25;101870.94;5059751;28;20501;-55
2022/05/06 10:39:28;;;;;;;6.68;3.80;;;;;;;21.80;38.15;101866.59;5049293;28;20499;-56
2022/05/06 10:42:06;;;;;;;5.40;3.10;;;;;;;21.74;38.36;101854.81;5048883;28;20412;-55
2022/05/06 10:44:40;;;;;;;5.53;3.30;;;;;;;21.77;37.81;101861.66;5066106;28;20502;-55
2022/05/06 10:47:50;;;;;;;5.97;3.58;;;;;;;21.96;37.85;101860.69;5065431;28;20449;-56
2022/05/06 10:50:20;;;;;;;7.45;3.70;;;;;;;22.21;36.99;101854.50;5071917;28;20414;-53
2022/05/06 10:52:49;;;;;;;7.05;3.50;;;;;;;22.18;37.04;101859.50;5072016;28;20423;-55
2022/05/06 10:55:22;;;;;;;6.47;3.10;;;;;;;22.18;35.88;101862.22;5071568;28;20500;-55
2022/05/06 10:58:00;;;;;;;4.25;3.20;;;;;;;22.30;36.18;101849.69;5072579;28;20414;-57
2022/05/06 11:00:29;;;;;;;5.40;3.10;;;;;;;22.34;35.32;101842.78;5071572;28;20411;-56
2022/05/06 11:02:59;;;;;;;4.47;3.25;;;;;;;22.41;35.97;101832.75;5070730;28;20454;-56
2022/05/06 11:05:29;;;;;;;6.57;3.27;;;;;;;22.78;35.37;101837.38;5072179;28;20415;-56
2022/05/06 11:07:58;;;;;;;5.35;3.30;;;;;;;22.72;35.07;101841.81;5071704;28;20458;-55
2022/05/06 11:10:30;;;;;;;7.75;3.25;;;;;;;22.54;35.31;101834.50;5072429;28;20407;-56
2022/05/06 11:12:58;;;;;;;5.63;3.10;;;;;;;22.50;35.25;101830.59;5071547;28;20912;-57
2022/05/06 11:15:29;;;;;;;7.70;3.17;;;;;;;22.51;35.12;101824.97;5071166;28;20963;-56
2022/05/06 11:17:58;;;;;;;4.90;3.15;;;;;;;22.80;35.10;101829.91;5069064;28;20511;-60
2022/05/06 11:20:28;;;;;;;4.57;3.03;;;;;;;22.70;34.75;101817.69;5070903;28;20587;-61
2022/05/06 11:23:00;;;;;;;5.70;3.20;;;;;;;22.71;34.73;101816.66;5069731;28;20900;-53
2022/05/06 11:25:32;;;;;;;6.13;3.37;;;;;;;22.82;34.52;101820.50;5071454;28;20500;-54
2022/05/06 11:28:02;;;;;;;4.35;3.05;;;;;;;22.90;34.41;101808.56;5070948;28;21051;-56
2022/05/06 11:30:30;;;;;;;5.45;3.10;;;;;;;22.69;35.04;101816.06;5070632;28;20511;-56
2022/05/06 11:32:59;;;;;;;5.65;3.35;;;;;;;22.69;35.32;101810.66;5070834;28;20422;-54
2022/05/06 11:35:32;;;;;;;4.65;3.20;;;;;;;22.67;35.11;101804.66;5071681;28;20478;-53
2022/05/06 11:38:00;;;;;;;6.00;3.28;;;;;;;22.94;35.19;101808.94;5071742;28;20411;-55
2022/05/06 11:40:39;;;;;;;4.60;3.03;;;;;;;22.97;35.13;101800.38;5071846;28;20901;-55
2022/05/06 11:43:08;;;;;;;4.67;3.23;;;;;;;23.02;35.04;101798.63;5071995;28;20803;-55
2022/05/06 11:48:22;;;;;;;5.33;2.97;;;;;;;23.01;34.19;101797.00;5072240;28;20954;-56
2022/05/06 11:50:57;;;;;;;5.80;3.13;;;;;;;23.06;34.36;101785.50;5072345;28;20510;-55
2022/05/06 11:53:28;;;;;;;3.95;2.83;;;;;;;23.06;33.86;101785.50;5072302;28;20411;-56
2022/05/06 11:55:57;;;;;;;5.00;2.80;;;;;;;23.17;33.05;101787.44;5072268;28;20419;-54
2022/05/06 11:58:26;;;;;;;7.22;2.72;;;;;;;23.29;32.65;101772.09;5071794;28;20442;-56
2022/05/06 12:00:54;;;;;;;4.15;2.90;;;;;;;23.33;33.05;101772.47;5072144;28;20500;-56
2022/05/06 12:03:22;;;;;;;5.10;2.50;;;;;;;23.31;32.05;101771.88;5071916;28;20423;-56
2022/05/06 12:06:04;;;;;;;4.43;2.70;;;;;;;23.45;31.62;101759.81;5071764;28;20769;-54
2022/05/06 12:08:33;;;;;;;7.63;2.78;;;;;;;23.48;30.48;101783.72;5071677;28;20437;-55
2022/05/06 12:11:03;;;;;;;5.40;2.55;;;;;;;23.43;30.32;101756.50;5071692;28;20932;-54
2022/05/06 12:13:34;;;;;;;5.30;2.57;;;;;;;23.51;29.85;101763.47;5072107;28;20507;-55
2022/05/06 12:16:12;;;;;;;6.40;2.50;;;;;;;23.57;29.58;101756.28;5071956;28;20429;-56
2022/05/06 12:18:52;;;;;;;6.18;2.50;;;;;;;23.64;28.95;101757.03;5071518;28;20431;-55
2022/05/06 12:21:21;;;;;;;3.38;2.28;;;;;;;23.74;29.16;101745.63;5071757;28;20422;-56
2022/05/06 12:23:53;;;;;;;5.70;2.40;;;;;;;23.79;29.86;101756.59;5071726;28;20446;-54
2022/05/06 12:26:30;;;;;;;4.13;2.22;;;;;;;23.84;29.25;101743.19;5071294;28;20427;-56
2022/05/06 12:28:57;;;;;;;4.28;2.45;;;;;;;23.74;28.59;101746.47;5071307;28;20813;-55
2022/05/06 12:31:31;;;;;;;3.15;2.10;;;;;;;23.91;28.83;101735.78;5071741;28;21634;-56